Time;durP1;ratioP1;P1;durP2;ratioP2;P2;SDS_P1;SDS_P2;PMS_P1;PMS_P2;Temp;Humidity;BMP_temperature;BMP_pressure;BME280_temperature;BME280_humidity;BME280_pressure;Samples;Min_cycle;Max_cycle;Signal;HPM_P1;HPM_P2
2023/05/01 00:01:47;;;;;;;2.75;0.50;;;10.90;99.90;;;;;;5039402;28;20025;-74
2023/05/01 00:04:13;;;;;;;2.45;0.20;;;9.90;99.90;;;;;;5048470;28;20046;-74
2023/05/01 00:06:38;;;;;;;0.65;0.13;;;9.90;99.90;;;;;;5072831;28;20060;-74
2023/05/01 00:09:05;;;;;;;3.45;0.47;;;9.90;99.90;;;;;;5072698;28;20420;-74
2023/05/01 00:11:31;;;;;;;1.92;0.10;;;11.40;99.90;;;;;;5072881;28;20095;-74
2023/05/01 00:13:57;;;;;;;2.40;0.28;;;9.80;99.90;;;;;;5072861;28;20079;-74
2023/05/01 00:16:22;;;;;;;1.63;0.17;;;9.80;99.90;;;;;;5072843;28;20017;-74
2023/05/01 00:18:48;;;;;;;1.67;0.22;;;9.70;99.90;;;;;;5054205;28;20036;-74
2023/05/01 00:21:13;;;;;;;3.83;0.65;;;9.70;99.90;;;;;;5052702;28;20480;-74
2023/05/01 00:23:39;;;;;;;1.88;0.20;;;9.70;99.90;;;;;;5052828;28;20032;-74
2023/05/01 00:26:04;;;;;;;1.67;0.10;;;9.70;99.90;;;;;;5052612;28;20017;-74
2023/05/01 00:28:30;;;;;;;6.72;0.30;;;9.70;99.90;;;;;;5052358;28;20079;-74
2023/05/01 00:30:56;;;;;;;3.38;0.30;;;9.70;99.90;;;;;;5052685;28;20017;-74
2023/05/01 00:33:22;;;;;;;4.97;0.17;;;10.10;99.90;;;;;;5046381;28;20119;-74
2023/05/01 00:35:47;;;;;;;0.85;0.20;;;9.60;99.90;;;;;;5072946;28;20487;-74
2023/05/01 00:38:13;;;;;;;1.25;0.20;;;9.60;99.90;;;;;;5072473;28;20395;-74
2023/05/01 00:40:45;;;;;;;0.47;0.00;;;9.60;99.90;;;;;;5072585;28;20067;-74
2023/05/01 00:43:12;;;;;;;3.30;0.17;;;9.60;99.90;;;;;;5072605;28;20422;-74
2023/05/01 00:45:39;;;;;;;2.08;0.20;;;9.50;99.90;;;;;;5054991;28;20089;-74
2023/05/01 00:48:05;;;;;;;3.70;0.40;;;9.50;99.90;;;;;;5054215;28;20028;-74
2023/05/01 00:50:31;;;;;;;1.25;0.10;;;9.40;99.90;;;;;;5034533;28;20119;-74
2023/05/01 00:52:56;;;;;;;2.30;0.10;;;9.40;99.90;;;;;;5052336;28;20032;-74
2023/05/01 00:55:22;;;;;;;2.47;0.10;;;9.40;99.90;;;;;;5052468;28;20021;-74
2023/05/01 00:57:49;;;;;;;3.15;0.10;;;9.40;99.90;;;;;;5052335;28;20038;-74
2023/05/01 01:00:15;;;;;;;3.30;0.10;;;9.40;99.90;;;;;;5052394;28;20075;-74
2023/05/01 01:02:41;;;;;;;0.85;0.20;;;9.40;99.90;;;;;;5041849;28;20060;-74
2023/05/01 01:05:07;;;;;;;2.38;0.50;;;9.40;99.90;;;;;;5038399;28;20071;-74
2023/05/01 01:07:53;;;;;;;0.50;0.20;;;9.30;99.90;;;;;;5056199;28;20024;-74
2023/05/01 01:10:39;;;;;;;1.63;0.30;;;9.30;99.90;;;;;;5037996;28;20399;-74
2023/05/01 01:13:32;;;;;;;1.35;0.20;;;9.30;99.90;;;;;;5055900;28;20029;-74
2023/05/01 01:16:18;;;;;;;2.92;0.65;;;9.30;99.90;;;;;;5066167;28;20040;-74
2023/05/01 01:19:24;;;;;;;2.33;0.20;;;9.30;99.90;;;;;;5075713;28;20480;-74
2023/05/01 01:21:57;;;;;;;1.00;0.20;;;9.30;99.90;;;;;;5057816;28;20118;-74
2023/05/01 01:24:32;;;;;;;2.00;0.35;;;9.30;99.90;;;;;;5075506;28;20082;-74
2023/05/01 01:27:07;;;;;;;2.00;0.25;;;9.20;99.90;;;;;;5057672;28;20037;-74
2023/05/01 01:29:45;;;;;;;2.15;0.20;;;9.30;99.90;;;;;;5074928;28;20392;-74
2023/05/01 01:33:00;;;;;;;2.15;0.20;;;9.20;99.90;;;;;;5054596;28;20033;-74
2023/05/01 01:35:27;;;;;;;4.15;0.75;;;9.20;99.90;;;;;;5038529;28;20557;-74
2023/05/01 01:38:08;;;;;;;1.33;0.20;;;9.20;99.90;;;;;;5055306;28;20070;-74
2023/05/01 01:41:00;;;;;;;5.15;0.57;;;9.20;99.90;;;;;;5055216;28;20387;-74
2023/05/01 01:43:30;;;;;;;1.80;0.20;;;9.20;99.90;;;;;;5055684;28;20064;-74
2023/05/01 01:46:03;;;;;;;1.63;0.10;;;9.20;99.90;;;;;;5037474;28;20033;-74
2023/05/01 01:48:33;;;;;;;0.85;0.30;;;9.10;99.90;;;;;;5055025;28;20029;-74
2023/05/01 01:51:01;;;;;;;2.50;0.68;;;9.10;99.90;;;;;;5055556;28;20021;-74
2023/05/01 01:53:29;;;;;;;2.08;0.10;;;9.10;99.90;;;;;;5037782;28;20025;-74
2023/05/01 01:55:58;;;;;;;1.65;0.30;;;9.10;99.90;;;;;;5055031;28;20060;-74
2023/05/01 01:58:25;;;;;;;3.40;0.52;;;9.10;99.90;;;;;;5055569;28;20392;-74
2023/05/01 02:00:54;;;;;;;1.48;0.22;;;9.00;99.90;;;;;;5074869;28;20024;-74
2023/05/01 02:03:21;;;;;;;3.08;0.30;;;9.10;99.90;;;;;;5052132;28;20017;-74
2023/05/01 02:05:49;;;;;;;2.42;0.52;;;9.00;99.90;;;;;;5036908;28;20033;-74
2023/05/01 02:08:16;;;;;;;3.92;0.45;;;9.10;99.90;;;;;;5036833;28;20052;-74
2023/05/01 02:10:44;;;;;;;3.35;0.10;;;9.10;99.90;;;;;;5054738;28;20388;-74
2023/05/01 02:13:11;;;;;;;1.58;0.40;;;9.10;99.90;;;;;;5054088;28;20013;-74
2023/05/01 02:15:39;;;;;;;1.58;0.57;;;9.10;99.90;;;;;;5036821;28;20384;-74
2023/05/01 02:18:05;;;;;;;2.17;0.67;;;9.10;99.90;;;;;;5064595;28;20099;-74
2023/05/01 02:20:32;;;;;;;3.75;0.45;;;9.20;99.90;;;;;;5074595;28;20073;-74
2023/05/01 02:22:58;;;;;;;4.25;0.40;;;9.20;99.90;;;;;;5074589;28;20025;-74
2023/05/01 02:25:26;;;;;;;2.97;0.40;;;9.10;99.90;;;;;;5056650;28;20033;-74
2023/05/01 02:27:58;;;;;;;2.47;0.20;;;9.10;99.90;;;;;;5056425;28;20360;-74
2023/05/01 02:30:24;;;;;;;2.15;0.32;;;9.20;99.90;;;;;;5056386;28;20104;-74
2023/05/01 02:32:50;;;;;;;4.97;0.40;;;9.20;99.90;;;;;;5064153;28;20104;-74
2023/05/01 02:35:16;;;;;;;1.52;0.80;;;9.20;99.90;;;;;;5054612;28;20036;-74
2023/05/01 02:37:43;;;;;;;3.45;0.88;;;9.20;99.90;;;;;;5054508;28;20048;-74
2023/05/01 02:40:11;;;;;;;1.27;0.45;;;9.20;99.90;;;;;;5054302;28;20029;-74
2023/05/01 02:42:38;;;;;;;2.97;0.85;;;9.20;99.90;;;;;;5054076;28;20024;-74
2023/05/01 02:45:06;;;;;;;2.65;0.40;;;9.20;99.90;;;;;;5054073;28;20024;-74
2023/05/01 02:47:38;;;;;;;2.78;0.50;;;9.30;99.90;;;;;;5069844;28;20055;-74
2023/05/01 02:50:05;;;;;;;2.83;1.02;;;9.30;99.90;;;;;;5073916;28;20027;-74
2023/05/01 02:52:30;;;;;;;2.97;0.63;;;9.30;99.90;;;;;;5073829;28;20016;-74
2023/05/01 02:54:56;;;;;;;2.03;0.40;;;9.30;99.90;;;;;;5073889;28;20101;-74
2023/05/01 02:57:22;;;;;;;1.60;0.50;;;9.30;99.90;;;;;;5055773;28;20068;-74
2023/05/01 02:59:48;;;;;;;7.10;1.08;;;9.30;99.90;;;;;;5073742;28;20062;-74
2023/05/01 03:02:14;;;;;;;2.03;0.30;;;9.30;99.90;;;;;;5040147;28;20112;-74
2023/05/01 03:04:41;;;;;;;1.92;0.65;;;9.30;99.90;;;;;;5036017;28;20020;-74
2023/05/01 03:07:07;;;;;;;1.40;0.32;;;9.30;99.90;;;;;;5053640;28;20515;-75
2023/05/01 03:09:32;;;;;;;4.10;0.88;;;9.30;99.90;;;;;;5053615;28;20052;-75
2023/05/01 03:11:58;;;;;;;1.30;0.17;;;9.30;99.90;;;;;;5053648;28;20056;-75
2023/05/01 03:14:24;;;;;;;3.70;0.60;;;9.30;99.90;;;;;;5035698;28;20017;-74
2023/05/01 03:16:49;;;;;;;3.13;0.60;;;11.00;99.90;;;;;;5055234;28;20024;-74
2023/05/01 03:19:15;;;;;;;1.40;0.38;;;;;;;;;;5073405;28;20024;-74
2023/05/01 03:21:41;;;;;;;3.70;0.65;;;9.40;99.90;;;;;;5073436;28;20056;-74
2023/05/01 03:24:07;;;;;;;3.88;0.20;;;9.30;99.90;;;;;;5055019;28;20031;-74
2023/05/01 03:26:32;;;;;;;2.90;0.40;;;9.40;99.90;;;;;;5073057;28;20480;-74
2023/05/01 03:28:58;;;;;;;0.70;0.20;;;9.40;99.90;;;;;;5073344;28;20027;-74
2023/05/01 03:31:24;;;;;;;2.58;0.63;;;9.40;99.90;;;;;;5071319;28;20039;-74
2023/05/01 03:33:49;;;;;;;5.55;0.40;;;9.40;99.90;;;;;;5073407;28;20025;-74
2023/05/01 03:36:15;;;;;;;5.57;0.60;;;9.40;99.90;;;;;;5073183;28;20095;-74
2023/05/01 03:38:41;;;;;;;2.58;0.40;;;9.40;99.90;;;;;;5072888;28;20072;-74
2023/05/01 03:41:07;;;;;;;2.00;0.82;;;9.40;99.90;;;;;;5073599;28;20032;-74
2023/05/01 03:43:33;;;;;;;10.13;0.40;;;9.40;99.90;;;;;;5055214;28;20153;-74
2023/05/01 03:45:58;;;;;;;2.47;0.40;;;9.40;99.90;;;;;;5073165;28;20060;-74
2023/05/01 03:48:24;;;;;;;2.97;0.70;;;9.40;99.90;;;;;;5054378;28;20488;-74
2023/05/01 03:50:52;;;;;;;2.78;0.57;;;9.40;99.90;;;;;;5053158;28;20025;-74
2023/05/01 03:53:18;;;;;;;0.55;0.22;;;9.40;99.90;;;;;;5035499;28;20021;-74
2023/05/01 03:55:44;;;;;;;0.95;0.20;;;9.40;99.90;;;;;;5035134;28;20063;-74
2023/05/01 03:58:10;;;;;;;3.95;0.60;;;9.30;99.90;;;;;;5052812;28;20043;-74
2023/05/01 04:00:36;;;;;;;5.40;0.38;;;9.30;99.90;;;;;;5053273;28;20029;-74
2023/05/01 04:03:02;;;;;;;3.15;0.65;;;10.90;99.90;;;;;;5055088;28;20115;-74
2023/05/01 04:05:29;;;;;;;1.80;0.50;;;9.30;99.90;;;;;;5061681;28;20036;-74
2023/05/01 04:07:55;;;;;;;2.40;0.43;;;9.30;99.90;;;;;;5034716;28;20036;-74
2023/05/01 04:10:20;;;;;;;1.55;0.55;;;9.20;99.90;;;;;;5052888;28;20388;-74
2023/05/01 04:12:46;;;;;;;5.10;0.90;;;9.20;99.90;;;;;;5053137;28;20383;-74
2023/05/01 04:15:11;;;;;;;6.53;0.68;;;9.20;99.90;;;;;;5052919;28;20033;-74
2023/05/01 04:17:37;;;;;;;2.97;0.22;;;9.20;99.90;;;;;;5040954;28;20045;-74
2023/05/01 04:20:05;;;;;;;4.07;0.43;;;9.20;99.90;;;;;;5054808;28;20016;-74
2023/05/01 04:22:31;;;;;;;2.30;0.52;;;9.20;99.90;;;;;;5071987;28;20433;-74
2023/05/01 04:24:56;;;;;;;1.50;0.60;;;9.20;99.90;;;;;;5054825;28;20016;-74
2023/05/01 04:27:22;;;;;;;5.35;0.60;;;9.10;99.90;;;;;;5072774;28;20437;-74
2023/05/01 04:29:47;;;;;;;3.65;0.40;;;9.10;99.90;;;;;;5054712;28;20036;-74
2023/05/01 04:32:13;;;;;;;2.47;0.80;;;9.10;99.90;;;;;;5071934;28;20074;-74
2023/05/01 04:34:39;;;;;;;5.25;0.75;;;9.10;99.90;;;;;;5034444;28;20025;-74
2023/05/01 04:37:07;;;;;;;3.15;0.22;;;9.10;99.90;;;;;;5055643;28;20021;-74
2023/05/01 04:39:33;;;;;;;1.10;0.30;;;9.10;99.90;;;;;;5038740;28;20029;-74
2023/05/01 04:41:59;;;;;;;3.75;0.40;;;9.20;99.90;;;;;;5056747;28;20104;-74
2023/05/01 04:44:24;;;;;;;2.08;0.22;;;9.10;99.90;;;;;;5038428;28;20029;-74
2023/05/01 04:46:50;;;;;;;3.42;0.40;;;9.20;99.90;;;;;;5062355;28;20016;-74
2023/05/01 04:49:15;;;;;;;1.15;0.28;;;9.20;99.90;;;;;;5076194;28;20028;-74
2023/05/01 04:51:41;;;;;;;5.05;0.80;;;9.20;99.90;;;;;;5091105;28;20020;-74
2023/05/01 04:54:07;;;;;;;1.60;0.43;;;9.20;99.90;;;;;;5096414;28;20013;-74
2023/05/01 04:56:33;;;;;;;1.05;0.43;;;9.20;99.90;;;;;;5096344;28;20068;-74
2023/05/01 04:58:58;;;;;;;2.95;0.63;;;9.30;99.90;;;;;;5096437;28;20043;-74
2023/05/01 05:01:24;;;;;;;5.53;0.50;;;9.30;99.90;;;;;;5096616;28;20413;-74
2023/05/01 05:03:49;;;;;;;7.57;0.65;;;9.30;99.90;;;;;;5070833;28;20029;-74
2023/05/01 05:06:15;;;;;;;4.85;0.90;;;9.30;99.90;;;;;;5056070;28;20107;-74
2023/05/01 05:08:41;;;;;;;2.80;0.50;;;9.40;99.90;;;;;;5037791;28;20037;-74
2023/05/01 05:11:06;;;;;;;6.13;0.73;;;9.40;99.90;;;;;;5055931;28;20021;-74
2023/05/01 05:13:32;;;;;;;2.55;0.50;;;9.50;99.90;;;;;;5055766;28;20040;-74
2023/05/01 05:15:57;;;;;;;1.88;0.57;;;9.50;99.90;;;;;;5055897;28;20480;-74
2023/05/01 05:18:23;;;;;;;2.40;0.88;;;9.60;99.90;;;;;;5066787;28;20482;-74
2023/05/01 05:20:49;;;;;;;2.90;0.52;;;9.60;99.90;;;;;;5075841;28;20483;-74
2023/05/01 05:23:14;;;;;;;1.40;0.35;;;9.60;99.90;;;;;;5057885;28;20020;-74
2023/05/01 05:25:40;;;;;;;2.35;0.93;;;9.70;99.90;;;;;;5075513;28;20023;-74
2023/05/01 05:28:05;;;;;;;3.67;0.95;;;9.70;99.90;;;;;;5075386;28;20029;-74
2023/05/01 05:30:31;;;;;;;3.10;0.52;;;9.70;99.90;;;;;;5075519;28;20146;-74
2023/05/01 05:32:56;;;;;;;4.75;0.35;;;10.00;99.90;;;;;;5059466;28;20365;-74
2023/05/01 05:35:22;;;;;;;3.25;1.42;;;9.80;99.90;;;;;;5055432;28;20082;-74
2023/05/01 05:37:48;;;;;;;10.07;0.77;;;9.80;99.90;;;;;;5055419;28;20021;-74
2023/05/01 05:40:13;;;;;;;3.95;0.70;;;9.80;99.90;;;;;;5037818;28;20025;-74
2023/05/01 05:42:39;;;;;;;7.30;0.40;;;9.80;99.90;;;;;;5055223;28;20025;-74
2023/05/01 05:45:06;;;;;;;4.47;0.50;;;9.80;99.90;;;;;;5055232;28;20021;-74
2023/05/01 05:47:31;;;;;;;5.72;0.85;;;9.90;99.90;;;;;;5050694;28;20025;-74
2023/05/01 05:49:57;;;;;;;1.20;0.20;;;9.90;99.90;;;;;;5075116;28;20074;-74
2023/05/01 05:52:22;;;;;;;2.08;0.40;;;10.00;99.90;;;;;;5074978;28;20024;-74
2023/05/01 05:54:48;;;;;;;3.50;0.82;;;10.10;99.90;;;;;;5075357;28;20511;-74
2023/05/01 05:57:13;;;;;;;1.58;0.65;;;10.20;99.90;;;;;;5074905;28;20476;-74
2023/05/01 05:59:39;;;;;;;2.53;1.00;;;10.20;99.90;;;;;;5075061;28;20032;-75
2023/05/01 06:02:05;;;;;;;2.08;0.43;;;10.30;99.90;;;;;;5069199;28;20600;-75
2023/05/01 06:04:30;;;;;;;6.10;0.32;;;10.40;99.90;;;;;;5059040;28;20523;-73
2023/05/01 06:06:56;;;;;;;3.53;0.73;;;10.50;99.90;;;;;;5036876;28;20483;-73
2023/05/01 06:09:22;;;;;;;1.55;0.32;;;10.60;99.90;;;;;;5054860;28;20155;-74
2023/05/01 06:11:47;;;;;;;2.75;0.82;;;10.60;99.90;;;;;;5041745;28;20032;-73
2023/05/01 06:14:14;;;;;;;5.03;0.88;;;10.70;99.90;;;;;;5056905;28;20017;-74
2023/05/01 06:16:39;;;;;;;3.00;0.73;;;10.70;99.90;;;;;;5074733;28;20025;-73
2023/05/01 06:19:06;;;;;;;3.10;0.60;;;10.70;99.90;;;;;;5074692;28;20039;-74
2023/05/01 06:21:32;;;;;;;2.30;0.35;;;10.80;99.90;;;;;;5074687;28;20024;-74
2023/05/01 06:23:58;;;;;;;1.92;0.80;;;10.80;99.90;;;;;;5056701;28;20028;-73
2023/05/01 06:26:25;;;;;;;2.80;1.15;;;10.80;99.90;;;;;;5074563;28;20039;-74
2023/05/01 06:28:50;;;;;;;5.22;1.02;;;10.80;99.90;;;;;;5074329;28;20020;-74
2023/05/01 06:31:16;;;;;;;2.47;0.43;;;10.90;99.90;;;;;;5074948;28;20055;-74
2023/05/01 06:33:41;;;;;;;6.35;1.45;;;10.90;99.90;;;;;;5074430;28;20087;-74
2023/05/01 06:36:07;;;;;;;4.97;0.93;;;11.00;99.90;;;;;;5074376;28;20048;-74
2023/05/01 06:38:33;;;;;;;6.40;1.38;;;11.00;99.90;;;;;;5074237;28;20031;-73
2023/05/01 06:40:58;;;;;;;3.95;0.77;;;11.00;99.90;;;;;;5074189;28;20494;-73
2023/05/01 06:43:29;;;;;;;6.88;1.30;;;11.00;99.90;;;;;;5074129;28;20033;-73
2023/05/01 06:45:55;;;;;;;4.72;1.10;;;11.20;99.90;;;;;;5074077;28;20040;-73
2023/05/01 06:48:21;;;;;;;4.57;1.35;;;11.20;99.90;;;;;;5074542;28;20108;-73
2023/05/01 06:50:46;;;;;;;4.53;0.80;;;11.30;99.90;;;;;;5074039;28;20112;-73
2023/05/01 06:53:12;;;;;;;3.08;0.88;;;11.40;99.90;;;;;;5073982;28;20048;-73
2023/05/01 06:55:38;;;;;;;4.45;0.85;;;11.50;99.90;;;;;;5073925;28;20020;-73
2023/05/01 06:58:05;;;;;;;3.85;0.80;;;11.60;99.90;;;;;;5073691;28;20029;-73
2023/05/01 07:00:32;;;;;;;2.72;0.70;;;11.60;99.90;;;;;;5055801;28;20024;-73
2023/05/01 07:02:57;;;;;;;8.93;1.73;;;11.80;99.90;;;;;;5050568;28;20033;-73
2023/05/01 07:05:23;;;;;;;2.38;1.20;;;11.90;99.90;;;;;;5053374;28;20507;-72
2023/05/01 07:07:48;;;;;;;4.72;0.85;;;12.00;99.90;;;;;;5033519;28;20480;-73
2023/05/01 07:10:14;;;;;;;3.95;0.95;;;12.10;99.90;;;;;;5052736;28;20472;-73
2023/05/01 07:12:40;;;;;;;3.85;0.70;;;12.10;99.90;;;;;;5053297;28;20535;-73
2023/05/01 07:15:06;;;;;;;2.65;0.90;;;12.30;99.90;;;;;;5052629;28;20029;-73
2023/05/01 07:17:33;;;;;;;2.90;0.82;;;12.30;99.90;;;;;;5053269;28;20052;-72
2023/05/01 07:19:59;;;;;;;1.75;0.60;;;12.20;99.90;;;;;;5053559;28;20028;-73
2023/05/01 07:22:25;;;;;;;4.95;0.95;;;12.40;99.90;;;;;;5035683;28;20256;-73
2023/05/01 07:24:51;;;;;;;7.18;0.70;;;12.30;99.90;;;;;;5053530;28;20059;-73
2023/05/01 07:27:16;;;;;;;4.93;0.93;;;12.50;99.90;;;;;;5053460;28;20029;-73
2023/05/01 07:29:42;;;;;;;3.95;0.68;;;12.50;99.90;;;;;;5053328;28;20056;-73
2023/05/01 07:32:07;;;;;;;3.80;0.88;;;12.60;99.90;;;;;;5053347;28;20025;-73
2023/05/01 07:34:33;;;;;;;16.83;2.15;;;12.70;99.90;;;;;;5053401;28;20096;-73
2023/05/01 07:36:58;;;;;;;6.45;1.38;;;12.80;99.90;;;;;;5035360;28;20426;-73
2023/05/01 07:39:25;;;;;;;2.78;0.85;;;12.80;99.90;;;;;;5053180;28;20021;-73
2023/05/01 07:41:50;;;;;;;4.05;0.77;;;12.80;99.90;;;;;;5053139;28;20028;-73
2023/05/01 07:44:16;;;;;;;4.07;0.90;;;13.20;99.90;;;;;;5053183;28;20025;-73
2023/05/01 07:46:42;;;;;;;5.13;0.63;;;13.00;99.90;;;;;;5053153;28;20037;-73
2023/05/01 07:49:07;;;;;;;3.95;0.90;;;13.00;99.90;;;;;;5052900;28;20029;-73
2023/05/01 07:51:33;;;;;;;2.83;1.05;;;13.10;99.90;;;;;;5053097;28;20104;-73
2023/05/01 07:54:03;;;;;;;3.97;1.38;;;13.20;99.90;;;;;;5053070;28;20043;-73
2023/05/01 07:56:32;;;;;;;2.80;0.95;;;13.30;99.90;;;;;;5035252;28;20553;-73
2023/05/01 07:58:57;;;;;;;;;;;13.50;99.90;;;;;;5053357;28;20106;-73
2023/05/01 08:01:23;;;;;;;5.28;0.85;;;13.70;99.90;;;;;;5035135;28;19904;-73
2023/05/01 08:03:49;;;;;;;4.65;0.90;;;13.70;99.90;;;;;;5053042;28;20025;-73
2023/05/01 08:06:14;;;;;;;6.68;2.00;;;13.80;99.90;;;;;;5052979;28;20488;-73
2023/05/01 08:08:40;;;;;;;4.57;0.95;;;13.90;99.90;;;;;;5052576;28;20380;-73
2023/05/01 08:11:05;;;;;;;5.72;1.13;;;13.90;99.90;;;;;;5054101;28;20028;-73
2023/05/01 08:13:31;;;;;;;8.00;1.27;;;14.00;99.90;;;;;;5057071;28;20025;-73
2023/05/01 08:16:01;;;;;;;3.47;0.90;;;14.50;99.90;;;;;;5039169;28;20045;-73
2023/05/01 08:18:27;;;;;;;6.07;1.65;;;14.00;99.90;;;;;;5056824;28;20029;-73
2023/05/01 08:20:52;;;;;;;2.72;0.63;;;14.00;99.90;;;;;;5057042;28;20100;-73
2023/05/01 08:23:18;;;;;;;3.30;0.95;;;14.10;99.90;;;;;;5038999;28;20487;-73
2023/05/01 08:25:45;;;;;;;0.75;0.40;;;14.20;99.90;;;;;;5056881;28;20102;-73
2023/05/01 08:28:13;;;;;;;5.00;0.88;;;14.30;99.90;;;;;;5038814;28;20029;-73
2023/05/01 08:30:38;;;;;;;7.28;0.73;;;14.70;99.90;;;;;;5056832;28;20021;-73
2023/05/01 08:33:04;;;;;;;7.95;1.75;;;14.40;99.90;;;;;;5056811;28;20025;-73
2023/05/01 08:35:30;;;;;;;4.13;1.10;;;14.40;99.90;;;;;;5038725;28;20021;-73
2023/05/01 08:37:56;;;;;;;1.48;0.60;;;14.60;99.90;;;;;;5056489;28;20100;-73
2023/05/01 08:40:24;;;;;;;4.50;1.35;;;14.60;99.90;;;;;;5056633;28;20021;-73
2023/05/01 08:42:50;;;;;;;2.73;1.40;;;14.70;99.90;;;;;;5057077;28;20499;-73
2023/05/01 08:45:18;;;;;;;4.75;1.33;;;14.70;99.90;;;;;;5056435;28;20263;-73
2023/05/01 08:47:45;;;;;;;2.70;1.10;;;14.80;99.90;;;;;;5038377;28;20052;-73
2023/05/01 08:50:12;;;;;;;3.55;0.75;;;14.80;99.90;;;;;;5038390;28;20013;-73
2023/05/01 08:52:44;;;;;;;5.80;1.58;;;14.90;99.90;;;;;;5056387;28;20017;-73
2023/05/01 08:55:14;;;;;;;3.13;0.68;;;14.90;99.90;;;;;;5038407;28;20029;-73
2023/05/01 08:57:47;;;;;;;5.32;1.27;;;15.20;99.90;;;;;;5056024;28;20036;-73
2023/05/01 09:00:20;;;;;;;5.85;1.40;;;15.30;99.90;;;;;;5038262;28;20018;-73
2023/05/01 09:02:47;;;;;;;4.35;0.85;;;15.30;99.90;;;;;;5038238;28;20031;-73
2023/05/01 09:05:15;;;;;;;3.97;0.95;;;15.50;99.90;;;;;;5038169;28;20017;-73
2023/05/01 09:07:42;;;;;;;5.63;0.95;;;15.50;99.90;;;;;;5038090;28;20021;-73
2023/05/01 09:10:08;;;;;;;3.35;0.88;;;15.60;99.90;;;;;;5055906;28;20096;-73
2023/05/01 09:12:34;;;;;;;6.82;1.20;;;15.80;99.90;;;;;;5056022;28;20021;-73
2023/05/01 09:15:02;;;;;;;9.05;1.55;;;15.70;99.90;;;;;;5055825;28;20029;-73
2023/05/01 09:17:30;;;;;;;2.50;1.50;;;15.80;99.90;;;;;;5056138;28;20024;-73
2023/05/01 09:19:56;;;;;;;2.78;1.20;;;;;;;;;;5037889;28;20302;-73
2023/05/01 09:22:22;;;;;;;6.13;2.00;;;15.80;99.90;;;;;;5036590;28;20021;-73
2023/05/01 09:24:50;;;;;;;3.72;1.85;;;16.00;99.90;;;;;;5055559;28;20040;-73
2023/05/01 09:27:16;;;;;;;6.97;1.52;;;16.00;99.90;;;;;;5056027;28;20025;-73
2023/05/01 09:29:44;;;;;;;4.22;1.38;;;15.90;99.90;;;;;;5055579;28;20392;-73
2023/05/01 09:32:23;;;;;;;3.75;1.10;;;16.20;99.90;;;;;;5055595;28;20127;-73
2023/05/01 09:34:50;;;;;;;2.33;0.22;;;16.30;99.90;;;;;;5037730;28;20583;-73
2023/05/01 09:37:26;;;;;;;2.53;0.60;;;16.60;99.90;;;;;;5037425;28;20490;-73
2023/05/01 09:40:13;;;;;;;4.00;1.20;;;16.80;99.90;;;;;;5055430;28;20479;-73
2023/05/01 09:42:50;;;;;;;2.70;1.17;;;17.10;99.90;;;;;;5055462;28;20029;-73
2023/05/01 09:45:17;;;;;;;6.72;2.08;;;17.20;99.90;;;;;;5055376;28;20025;-73
2023/05/01 09:47:46;;;;;;;2.45;0.70;;;17.20;99.90;;;;;;5037255;28;20499;-73
2023/05/01 09:50:28;;;;;;;5.93;1.02;;;17.30;99.90;;;;;;5055318;28;20087;-73
2023/05/01 09:52:54;;;;;;;5.00;0.75;;;17.40;99.90;;;;;;5055168;28;20025;-73
2023/05/01 09:55:20;;;;;;;1.90;0.75;;;17.60;99.90;;;;;;5055226;28;20090;-73
2023/05/01 09:57:46;;;;;;;2.42;0.55;;;17.60;99.90;;;;;;5055343;28;20454;-73
2023/05/01 10:00:14;;;;;;;5.32;1.00;;;17.70;99.70;;;;;;5037276;28;20025;-73
2023/05/01 10:02:40;;;;;;;4.38;1.13;;;17.70;99.90;;;;;;5055085;28;20017;-73
2023/05/01 10:05:10;;;;;;;6.32;1.45;;;17.50;99.90;;;;;;5055340;28;20048;-73
2023/05/01 10:07:36;;;;;;;5.07;1.30;;;17.60;99.90;;;;;;5054931;28;20052;-73
2023/05/01 10:10:18;;;;;;;4.07;1.13;;;17.60;99.90;;;;;;5055354;28;20036;-73
2023/05/01 10:12:44;;;;;;;3.20;0.80;;;17.70;99.90;;;;;;5054914;28;20021;-73
2023/05/01 10:15:10;;;;;;;5.80;0.88;;;17.70;99.90;;;;;;5055328;28;20419;-73
2023/05/01 10:17:38;;;;;;;8.75;1.15;;;17.70;99.90;;;;;;5054734;28;20028;-73
2023/05/01 10:20:11;;;;;;;3.58;1.15;;;17.70;99.60;;;;;;5054800;28;20032;-73
2023/05/01 10:22:37;;;;;;;5.75;0.70;;;17.70;99.90;;;;;;5055249;28;20445;-73
2023/05/01 10:25:07;;;;;;;2.20;0.88;;;17.70;99.90;;;;;;5054640;28;20032;-73
2023/05/01 10:27:34;;;;;;;2.50;0.73;;;17.70;99.90;;;;;;5036612;28;20032;-73
2023/05/01 10:30:04;;;;;;;4.72;0.47;;;17.70;99.90;;;;;;5037345;28;20020;-73
2023/05/01 10:32:31;;;;;;;3.42;0.65;;;17.60;99.90;;;;;;5054441;28;20021;-73
2023/05/01 10:35:07;;;;;;;5.13;1.05;;;17.60;99.90;;;;;;5036042;28;20021;-73
2023/05/01 10:37:38;;;;;;;9.25;1.67;;;17.60;99.90;;;;;;5036503;28;20484;-73
2023/05/01 10:40:38;;;;;;;5.15;1.05;;;17.50;99.90;;;;;;5054293;28;20510;-73
2023/05/01 10:43:27;;;;;;;2.95;1.08;;;17.40;99.90;;;;;;5054203;28;20060;-73
2023/05/01 10:46:17;;;;;;;1.33;0.55;;;17.40;99.90;;;;;;5052681;28;20533;-73
2023/05/01 10:48:46;;;;;;;2.88;0.75;;;17.30;99.90;;;;;;5034478;28;20021;-73
2023/05/01 10:51:16;;;;;;;2.80;0.57;;;17.20;99.90;;;;;;5036190;28;20369;-73
2023/05/01 10:53:47;;;;;;;1.33;0.43;;;17.10;99.90;;;;;;5035721;28;20021;-73
2023/05/01 10:56:25;;;;;;;3.20;0.57;;;17.00;99.90;;;;;;5053766;28;20017;-73
2023/05/01 10:58:56;;;;;;;5.78;1.17;;;17.00;99.90;;;;;;5054050;28;20396;-73
2023/05/01 11:01:32;;;;;;;3.47;0.82;;;17.00;99.90;;;;;;5053879;28;20031;-73
2023/05/01 11:04:01;;;;;;;4.72;1.00;;;16.90;99.90;;;;;;5053880;28;20358;-73
2023/05/01 11:06:26;;;;;;;6.22;1.17;;;16.90;99.90;;;;;;5054379;28;20536;-73
2023/05/01 11:08:53;;;;;;;4.45;0.93;;;16.90;99.90;;;;;;5053606;28;20099;-73
2023/05/01 11:11:18;;;;;;;2.90;0.90;;;16.90;99.90;;;;;;5054256;28;20017;-73
2023/05/01 11:14:00;;;;;;;3.20;0.90;;;16.90;99.90;;;;;;5035862;28;20028;-73
2023/05/01 11:16:47;;;;;;;5.35;0.73;;;16.90;99.90;;;;;;5053626;28;20032;-73
2023/05/01 11:19:22;;;;;;;4.07;1.50;;;17.00;99.90;;;;;;5053626;28;20116;-73
2023/05/01 11:21:48;;;;;;;4.75;1.00;;;17.20;99.90;;;;;;5035789;28;20079;-73
2023/05/01 11:24:16;;;;;;;2.85;0.90;;;17.40;99.90;;;;;;5053464;28;20025;-73
2023/05/01 11:26:42;;;;;;;7.32;1.27;;;17.50;99.90;;;;;;5053575;28;20029;-73
2023/05/01 11:29:09;;;;;;;3.80;1.55;;;17.60;99.90;;;;;;5053256;28;20480;-73
2023/05/01 11:31:35;;;;;;;6.10;1.55;;;17.70;99.90;;;;;;5053310;28;20384;-73
2023/05/01 11:34:02;;;;;;;6.15;1.77;;;17.80;99.90;;;;;;5053385;28;20017;-73
2023/05/01 11:36:29;;;;;;;4.22;1.10;;;17.60;99.90;;;;;;5053307;28;20017;-73
2023/05/01 11:39:00;;;;;;;5.82;1.60;;;17.50;99.90;;;;;;5053250;28;20021;-72
2023/05/01 11:41:26;;;;;;;6.13;1.73;;;17.40;99.90;;;;;;5035394;28;20021;-73
2023/05/01 11:43:58;;;;;;;5.82;2.17;;;17.30;99.90;;;;;;5035457;28;20029;-72
2023/05/01 11:46:26;;;;;;;5.97;1.13;;;17.20;99.90;;;;;;5053089;28;20025;-73
2023/05/01 11:48:56;;;;;;;7.15;2.45;;;17.00;99.90;;;;;;5052924;28;20506;-72
2023/05/01 11:51:23;;;;;;;6.13;1.92;;;16.90;99.90;;;;;;5053122;28;20024;-72
2023/05/01 11:53:59;;;;;;;6.60;1.45;;;16.70;99.90;;;;;;5035692;28;20021;-72
2023/05/01 11:56:25;;;;;;;16.40;2.67;;;16.60;99.90;;;;;;5035244;28;20373;-72
2023/05/01 11:58:51;;;;;;;4.28;1.55;;;16.50;99.90;;;;;;5053027;28;20032;-72
2023/05/01 12:01:17;;;;;;;5.22;1.60;;;16.40;99.90;;;;;;5035323;28;20103;-72
2023/05/01 12:03:43;;;;;;;7.72;1.40;;;16.40;99.90;;;;;;5053079;28;20056;-72
2023/05/01 12:06:13;;;;;;;8.65;1.50;;;16.40;99.90;;;;;;5053013;28;20025;-72
2023/05/01 12:08:46;;;;;;;5.38;1.25;;;16.20;99.90;;;;;;5052875;28;20100;-72
2023/05/01 12:11:12;;;;;;;6.60;1.48;;;16.20;99.90;;;;;;5052957;28;20032;-72
2023/05/01 12:13:39;;;;;;;4.43;1.67;;;16.10;99.90;;;;;;5067911;28;20028;-72
2023/05/01 12:16:05;;;;;;;5.35;1.08;;;16.00;99.90;;;;;;5073508;28;20020;-72
2023/05/01 12:18:31;;;;;;;2.67;0.93;;;15.80;99.90;;;;;;5055122;28;20024;-72
2023/05/01 12:20:56;;;;;;;7.10;1.08;;;15.70;99.90;;;;;;5072896;28;20086;-72
2023/05/01 12:23:33;;;;;;;3.55;0.90;;;15.60;99.90;;;;;;5072978;28;20063;-72
2023/05/01 12:26:01;;;;;;;7.82;1.30;;;15.50;99.90;;;;;;5072940;28;20021;-72
2023/05/01 12:28:27;;;;;;;7.20;1.40;;;15.30;99.90;;;;;;5072596;28;20029;-72
2023/05/01 12:30:56;;;;;;;4.53;1.15;;;15.20;99.90;;;;;;5072876;28;20263;-72
2023/05/01 12:33:22;;;;;;;4.57;1.92;;;15.10;99.90;;;;;;5055655;28;20017;-72
2023/05/01 12:35:49;;;;;;;4.90;1.35;;;15.10;99.90;;;;;;5072743;28;20035;-72
2023/05/01 12:38:16;;;;;;;5.10;1.67;;;15.00;99.90;;;;;;5073621;28;20028;-73
2023/05/01 12:40:53;;;;;;;5.88;2.03;;;15.00;99.90;;;;;;5073096;28;20017;-72
2023/05/01 12:43:33;;;;;;;8.40;1.95;;;15.00;99.90;;;;;;5054719;28;20436;-72
2023/05/01 12:45:59;;;;;;;5.15;1.92;;;15.10;99.90;;;;;;5072688;28;20029;-72
2023/05/01 12:48:25;;;;;;;2.83;1.23;;;15.10;99.90;;;;;;5072482;28;20118;-72
2023/05/01 12:50:54;;;;;;;5.68;1.92;;;15.10;99.90;;;;;;5072596;28;20025;-72
2023/05/01 12:53:22;;;;;;;4.05;1.63;;;15.10;99.90;;;;;;5072605;28;20032;-73
2023/05/01 12:55:50;;;;;;;7.43;1.38;;;15.10;99.90;;;;;;5052424;28;20025;-72
2023/05/01 12:58:16;;;;;;;4.95;0.80;;;15.10;99.90;;;;;;5055109;28;20128;-72